sensor_id;sensor_type;location;lat;lon;timestamp;pressure;altitude;pressure_sealevel;temperature
63009;BMP280;49099;28.428;-16.488;2022-12-07T00:01:20;98096.22;;;21.14
63009;BMP280;49099;28.428;-16.488;2022-12-07T00:03:49;98108.31;;;21.15
63009;BMP280;49099;28.428;-16.488;2022-12-07T00:06:17;98108.31;;;21.15
63009;BMP280;49099;28.428;-16.488;2022-12-07T00:08:44;98106.88;;;21.14
63009;BMP280;49099;28.428;-16.488;2022-12-07T00:11:15;98115.34;;;21.13
63009;BMP280;49099;28.428;-16.488;2022-12-07T00:13:43;98115.63;;;21.09
63009;BMP280;49099;28.428;-16.488;2022-12-07T00:16:16;98114.88;;;21.09
63009;BMP280;49099;28.428;-16.488;2022-12-07T00:18:44;98115.63;;;21.09
63009;BMP280;49099;28.428;-16.488;2022-12-07T00:21:15;98106.91;;;21.03
63009;BMP280;49099;28.428;-16.488;2022-12-07T00:23:44;98094.78;;;21.02
63009;BMP280;49099;28.428;-16.488;2022-12-07T00:28:40;98082.91;;;20.98
63009;BMP280;49099;28.428;-16.488;2022-12-07T00:31:11;98077.56;;;20.98
63009;BMP280;49099;28.428;-16.488;2022-12-07T00:33:39;98078.28;;;20.98
63009;BMP280;49099;28.428;-16.488;2022-12-07T00:36:08;98073.91;;;21.01
63009;BMP280;49099;28.428;-16.488;2022-12-07T00:38:37;98076.31;;;21.04
63009;BMP280;49099;28.428;-16.488;2022-12-07T00:41:07;98068.28;;;21.04
63009;BMP280;49099;28.428;-16.488;2022-12-07T00:43:34;98068.53;;;21.06
63009;BMP280;49099;28.428;-16.488;2022-12-07T00:46:01;98068.53;;;21.06
63009;BMP280;49099;28.428;-16.488;2022-12-07T00:48:29;98065.63;;;21.04
63009;BMP280;49099;28.428;-16.488;2022-12-07T00:50:58;98058.84;;;21.03
63009;BMP280;49099;28.428;-16.488;2022-12-07T00:53:26;98062.00;;;21.02
63009;BMP280;49099;28.428;-16.488;2022-12-07T00:55:53;98060.06;;;21.02
63009;BMP280;49099;28.428;-16.488;2022-12-07T00:58:20;98057.41;;;21.02
63009;BMP280;49099;28.428;-16.488;2022-12-07T01:00:48;98055.22;;;21.01
63009;BMP280;49099;28.428;-16.488;2022-12-07T01:03:16;98055.47;;;20.97
63009;BMP280;49099;28.428;-16.488;2022-12-07T01:05:51;98050.59;;;20.96
63009;BMP280;49099;28.428;-16.488;2022-12-07T01:08:19;98054.97;;;20.99
63009;BMP280;49099;28.428;-16.488;2022-12-07T01:10:46;98040.91;;;20.98
63009;BMP280;49099;28.428;-16.488;2022-12-07T01:13:14;98043.59;;;20.98
63009;BMP280;49099;28.428;-16.488;2022-12-07T01:15:42;98039.44;;;20.97
63009;BMP280;49099;28.428;-16.488;2022-12-07T01:18:09;98031.66;;;20.99
63009;BMP280;49099;28.428;-16.488;2022-12-07T01:20:37;98033.59;;;20.99
63009;BMP280;49099;28.428;-16.488;2022-12-07T01:23:04;98029.72;;;21.00
63009;BMP280;49099;28.428;-16.488;2022-12-07T01:25:31;98026.06;;;21.03
63009;BMP280;49099;28.428;-16.488;2022-12-07T01:27:58;98027.50;;;21.04
63009;BMP280;49099;28.428;-16.488;2022-12-07T01:30:26;98023.88;;;21.01
63009;BMP280;49099;28.428;-16.488;2022-12-07T01:32:53;98013.22;;;21.01
63009;BMP280;49099;28.428;-16.488;2022-12-07T01:35:20;98020.22;;;21.04
63009;BMP280;49099;28.428;-16.488;2022-12-07T01:37:47;98021.72;;;21.05
63009;BMP280;49099;28.428;-16.488;2022-12-07T01:40:14;98015.13;;;21.06
63009;BMP280;49099;28.428;-16.488;2022-12-07T01:42:41;98016.59;;;21.07
63009;BMP280;49099;28.428;-16.488;2022-12-07T01:45:38;97996.94;;;21.05
63009;BMP280;49099;28.428;-16.488;2022-12-07T01:48:06;97996.94;;;20.99
63009;BMP280;49099;28.428;-16.488;2022-12-07T01:50:34;97990.94;;;20.93
63009;BMP280;49099;28.428;-16.488;2022-12-07T01:53:04;97997.47;;;20.92
63009;BMP280;49099;28.428;-16.488;2022-12-07T01:55:35;97992.13;;;20.92
63009;BMP280;49099;28.428;-16.488;2022-12-07T01:58:04;97983.91;;;20.90
63009;BMP280;49099;28.428;-16.488;2022-12-07T02:00:31;97989.44;;;20.92
63009;BMP280;49099;28.428;-16.488;2022-12-07T02:03:13;97985.31;;;20.97
63009;BMP280;49099;28.428;-16.488;2022-12-07T02:05:43;97977.53;;;20.99
63009;BMP280;49099;28.428;-16.488;2022-12-07T02:08:11;97971.72;;;21.00
63009;BMP280;49099;28.428;-16.488;2022-12-07T02:10:39;97967.81;;;21.01
63009;BMP280;49099;28.428;-16.488;2022-12-07T02:13:13;97962.97;;;21.05
63009;BMP280;49099;28.428;-16.488;2022-12-07T02:16:00;97952.94;;;21.11
63009;BMP280;49099;28.428;-16.488;2022-12-07T02:21:20;97944.00;;;21.14
63009;BMP280;49099;28.428;-16.488;2022-12-07T02:24:19;97946.38;;;21.18
63009;BMP280;49099;28.428;-16.488;2022-12-07T02:29:24;97942.44;;;21.24
63009;BMP280;49099;28.428;-16.488;2022-12-07T02:37:00;97935.16;;;21.25
63009;BMP280;49099;28.428;-16.488;2022-12-07T02:39:40;97934.69;;;21.26
63009;BMP280;49099;28.428;-16.488;2022-12-07T02:42:15;97926.69;;;21.26
63009;BMP280;49099;28.428;-16.488;2022-12-07T02:44:45;97916.00;;;21.26
63009;BMP280;49099;28.428;-16.488;2022-12-07T02:47:15;97918.41;;;21.24
63009;BMP280;49099;28.428;-16.488;2022-12-07T02:49:44;97911.13;;;21.25
63009;BMP280;49099;28.428;-16.488;2022-12-07T02:52:11;97915.72;;;21.24
63009;BMP280;49099;28.428;-16.488;2022-12-07T02:54:38;97922.00;;;21.27
63009;BMP280;49099;28.428;-16.488;2022-12-07T03:00:11;97896.59;;;21.20
63009;BMP280;49099;28.428;-16.488;2022-12-07T03:03:00;97881.53;;;21.17
63009;BMP280;49099;28.428;-16.488;2022-12-07T03:08:36;97905.34;;;21.15
63009;BMP280;49099;28.428;-16.488;2022-12-07T03:13:47;97904.38;;;21.18
63009;BMP280;49099;28.428;-16.488;2022-12-07T03:16:27;97907.06;;;21.18
63009;BMP280;49099;28.428;-16.488;2022-12-07T03:19:05;97902.91;;;21.17
63009;BMP280;49099;28.428;-16.488;2022-12-07T03:21:38;97899.03;;;21.18
63009;BMP280;49099;28.428;-16.488;2022-12-07T03:24:21;97895.41;;;21.16
63009;BMP280;49099;28.428;-16.488;2022-12-07T03:27:04;97901.03;;;21.12
63009;BMP280;49099;28.428;-16.488;2022-12-07T03:30:18;97896.66;;;21.09
63009;BMP280;49099;28.428;-16.488;2022-12-07T03:32:56;97895.69;;;21.12
63009;BMP280;49099;28.428;-16.488;2022-12-07T03:35:32;97901.97;;;21.15
63009;BMP280;49099;28.428;-16.488;2022-12-07T03:38:10;97896.88;;;21.17
63009;BMP280;49099;28.428;-16.488;2022-12-07T03:43:28;97906.53;;;21.20
63009;BMP280;49099;28.428;-16.488;2022-12-07T03:54:36;97912.34;;;21.24
63009;BMP280;49099;28.428;-16.488;2022-12-07T03:57:07;97902.38;;;21.24
63009;BMP280;49099;28.428;-16.488;2022-12-07T03:59:34;97892.91;;;21.23
63009;BMP280;49099;28.428;-16.488;2022-12-07T04:02:05;97884.22;;;21.17
63009;BMP280;49099;28.428;-16.488;2022-12-07T04:04:33;97876.50;;;21.14
63009;BMP280;49099;28.428;-16.488;2022-12-07T04:07:00;97866.09;;;21.10
63009;BMP280;49099;28.428;-16.488;2022-12-07T04:09:27;97850.34;;;21.01
63009;BMP280;49099;28.428;-16.488;2022-12-07T04:11:55;97852.06;;;20.99
63009;BMP280;49099;28.428;-16.488;2022-12-07T04:14:22;97854.75;;;20.99
63009;BMP280;49099;28.428;-16.488;2022-12-07T04:16:55;97849.63;;;21.01
63009;BMP280;49099;28.428;-16.488;2022-12-07T04:19:31;97841.13;;;21.02
63009;BMP280;49099;28.428;-16.488;2022-12-07T04:22:00;97853.69;;;21.07
63009;BMP280;49099;28.428;-16.488;2022-12-07T04:24:27;97858.09;;;21.10
63009;BMP280;49099;28.428;-16.488;2022-12-07T04:26:54;97856.34;;;21.13
63009;BMP280;49099;28.428;-16.488;2022-12-07T04:29:22;97862.63;;;21.15
63009;BMP280;49099;28.428;-16.488;2022-12-07T04:31:50;97864.09;;;21.16
63009;BMP280;49099;28.428;-16.488;2022-12-07T04:34:18;97863.34;;;21.16
63009;BMP280;49099;28.428;-16.488;2022-12-07T04:36:46;97869.13;;;21.20
63009;BMP280;49099;28.428;-16.488;2022-12-07T04:41:48;97875.47;;;21.22
63009;BMP280;49099;28.428;-16.488;2022-12-07T04:44:17;97881.28;;;21.21
63009;BMP280;49099;28.428;-16.488;2022-12-07T04:46:45;97871.66;;;21.12
63009;BMP280;49099;28.428;-16.488;2022-12-07T04:49:13;97861.97;;;21.04
63009;BMP280;49099;28.428;-16.488;2022-12-07T04:51:42;97858.34;;;21.01
63009;BMP280;49099;28.428;-16.488;2022-12-07T04:54:09;97859.31;;;21.04
63009;BMP280;49099;28.428;-16.488;2022-12-07T04:56:37;97840.16;;;21.05
63009;BMP280;49099;28.428;-16.488;2022-12-07T04:59:04;97837.47;;;21.05
63009;BMP280;49099;28.428;-16.488;2022-12-07T05:01:32;97830.00;;;20.98
63009;BMP280;49099;28.428;-16.488;2022-12-07T05:03:59;97838.97;;;20.95
63009;BMP280;49099;28.428;-16.488;2022-12-07T05:06:27;97839.50;;;20.94
63009;BMP280;49099;28.428;-16.488;2022-12-07T05:08:54;97837.56;;;20.94
63009;BMP280;49099;28.428;-16.488;2022-12-07T05:11:21;97831.75;;;20.90
63009;BMP280;49099;28.428;-16.488;2022-12-07T05:14:18;97831.25;;;20.92
63009;BMP280;49099;28.428;-16.488;2022-12-07T05:16:48;97829.03;;;20.96
63009;BMP280;49099;28.428;-16.488;2022-12-07T05:19:17;97815.63;;;21.01
63009;BMP280;49099;28.428;-16.488;2022-12-07T05:21:45;97802.53;;;21.03
63009;BMP280;49099;28.428;-16.488;2022-12-07T05:24:14;97799.81;;;21.09
63009;BMP280;49099;28.428;-16.488;2022-12-07T05:26:42;97788.38;;;21.14
63009;BMP280;49099;28.428;-16.488;2022-12-07T05:29:12;97786.66;;;21.16
63009;BMP280;49099;28.428;-16.488;2022-12-07T05:31:39;97793.91;;;21.16
63009;BMP280;49099;28.428;-16.488;2022-12-07T05:34:06;97800.00;;;21.16
63009;BMP280;49099;28.428;-16.488;2022-12-07T05:36:34;97805.78;;;21.20
63009;BMP280;49099;28.428;-16.488;2022-12-07T05:39:01;97799.44;;;21.23
63009;BMP280;49099;28.428;-16.488;2022-12-07T05:41:29;97806.22;;;21.24
63009;BMP280;49099;28.428;-16.488;2022-12-07T05:44:14;97807.16;;;21.27
63009;BMP280;49099;28.428;-16.488;2022-12-07T05:46:41;97810.56;;;21.27
63009;BMP280;49099;28.428;-16.488;2022-12-07T05:49:09;97806.69;;;21.28
63009;BMP280;49099;28.428;-16.488;2022-12-07T05:51:36;97809.16;;;21.26
63009;BMP280;49099;28.428;-16.488;2022-12-07T05:54:03;97822.72;;;21.28
63009;BMP280;49099;28.428;-16.488;2022-12-07T05:56:30;97807.41;;;21.29
63009;BMP280;49099;28.428;-16.488;2022-12-07T05:58:57;97818.31;;;21.31
63009;BMP280;49099;28.428;-16.488;2022-12-07T06:01:42;97815.66;;;21.31
63009;BMP280;49099;28.428;-16.488;2022-12-07T06:04:10;97822.00;;;21.28
63009;BMP280;49099;28.428;-16.488;2022-12-07T06:06:37;97813.25;;;21.27
63009;BMP280;49099;28.428;-16.488;2022-12-07T06:09:04;97805.97;;;21.28
63009;BMP280;49099;28.428;-16.488;2022-12-07T06:11:31;97789.72;;;21.26
63009;BMP280;49099;28.428;-16.488;2022-12-07T06:14:17;97793.13;;;21.26
63009;BMP280;49099;28.428;-16.488;2022-12-07T06:16:44;97793.56;;;21.30
63009;BMP280;49099;28.428;-16.488;2022-12-07T06:19:11;97797.91;;;21.33
63009;BMP280;49099;28.428;-16.488;2022-12-07T06:21:39;97796.69;;;21.34
63009;BMP280;49099;28.428;-16.488;2022-12-07T06:24:06;97814.41;;;21.37
63009;BMP280;49099;28.428;-16.488;2022-12-07T06:26:33;97806.81;;;21.41
63009;BMP280;49099;28.428;-16.488;2022-12-07T06:29:00;97793.47;;;21.41
63009;BMP280;49099;28.428;-16.488;2022-12-07T06:31:27;97800.28;;;21.42
63009;BMP280;49099;28.428;-16.488;2022-12-07T06:34:03;97799.53;;;21.42
63009;BMP280;49099;28.428;-16.488;2022-12-07T06:36:30;97802.69;;;21.40
63009;BMP280;49099;28.428;-16.488;2022-12-07T06:38:58;97818.97;;;21.42
63009;BMP280;49099;28.428;-16.488;2022-12-07T06:41:25;97833.00;;;21.43
63009;BMP280;49099;28.428;-16.488;2022-12-07T06:43:52;97826.47;;;21.44
63009;BMP280;49099;28.428;-16.488;2022-12-07T06:46:22;97827.91;;;21.45
63009;BMP280;49099;28.428;-16.488;2022-12-07T06:48:50;97821.84;;;21.44
63009;BMP280;49099;28.428;-16.488;2022-12-07T06:51:17;97819.19;;;21.44
63009;BMP280;49099;28.428;-16.488;2022-12-07T06:53:44;97799.75;;;21.44
63009;BMP280;49099;28.428;-16.488;2022-12-07T06:56:12;97794.94;;;21.42
63009;BMP280;49099;28.428;-16.488;2022-12-07T06:58:39;97784.94;;;21.43
63009;BMP280;49099;28.428;-16.488;2022-12-07T07:01:10;97778.19;;;21.42
63009;BMP280;49099;28.428;-16.488;2022-12-07T07:03:38;97777.16;;;21.45
63009;BMP280;49099;28.428;-16.488;2022-12-07T07:06:06;97771.31;;;21.46
63009;BMP280;49099;28.428;-16.488;2022-12-07T07:08:34;97773.97;;;21.46
63009;BMP280;49099;28.428;-16.488;2022-12-07T07:11:02;97781.22;;;21.51
63009;BMP280;49099;28.428;-16.488;2022-12-07T07:13:30;97789.19;;;21.57
63009;BMP280;49099;28.428;-16.488;2022-12-07T07:15:57;97790.34;;;21.61
63009;BMP280;49099;28.428;-16.488;2022-12-07T07:18:24;97806.38;;;21.61
63009;BMP280;49099;28.428;-16.488;2022-12-07T07:20:51;97798.38;;;21.61
63009;BMP280;49099;28.428;-16.488;2022-12-07T07:23:20;97806.38;;;21.61
63009;BMP280;49099;28.428;-16.488;2022-12-07T07:25:47;97815.63;;;21.60
63009;BMP280;49099;28.428;-16.488;2022-12-07T07:28:15;97819.00;;;21.61
63009;BMP280;49099;28.428;-16.488;2022-12-07T07:30:43;97823.84;;;21.62
63009;BMP280;49099;28.428;-16.488;2022-12-07T07:33:10;97798.88;;;21.60
63009;BMP280;49099;28.428;-16.488;2022-12-07T07:35:38;97799.13;;;21.56
63009;BMP280;49099;28.428;-16.488;2022-12-07T07:38:07;97811.28;;;21.57
63009;BMP280;49099;28.428;-16.488;2022-12-07T07:40:35;97817.56;;;21.60
63009;BMP280;49099;28.428;-16.488;2022-12-07T07:43:02;97819.50;;;21.59
63009;BMP280;49099;28.428;-16.488;2022-12-07T07:45:29;97835.53;;;21.59
63009;BMP280;49099;28.428;-16.488;2022-12-07T07:47:56;97839.16;;;21.62
63009;BMP280;49099;28.428;-16.488;2022-12-07T07:50:23;97844.94;;;21.66
63009;BMP280;49099;28.428;-16.488;2022-12-07T07:52:51;97850.06;;;21.69
63009;BMP280;49099;28.428;-16.488;2022-12-07T07:55:18;97850.25;;;21.71
63009;BMP280;49099;28.428;-16.488;2022-12-07T07:57:45;97852.94;;;21.71
63009;BMP280;49099;28.428;-16.488;2022-12-07T08:00:20;97845.16;;;21.73
63009;BMP280;49099;28.428;-16.488;2022-12-07T08:02:47;97845.16;;;21.73
63009;BMP280;49099;28.428;-16.488;2022-12-07T08:05:15;97845.16;;;21.73
63009;BMP280;49099;28.428;-16.488;2022-12-07T08:07:42;97841.75;;;21.73
63009;BMP280;49099;28.428;-16.488;2022-12-07T08:10:12;97844.41;;;21.73
63009;BMP280;49099;28.428;-16.488;2022-12-07T08:12:41;97843.69;;;21.72
63009;BMP280;49099;28.428;-16.488;2022-12-07T08:15:29;97846.13;;;21.70
63009;BMP280;49099;28.428;-16.488;2022-12-07T08:17:56;97834.03;;;21.69
63009;BMP280;49099;28.428;-16.488;2022-12-07T08:20:23;97842.50;;;21.68
63009;BMP280;49099;28.428;-16.488;2022-12-07T08:22:50;97833.56;;;21.65
63009;BMP280;49099;28.428;-16.488;2022-12-07T08:25:18;97827.53;;;21.59
63009;BMP280;49099;28.428;-16.488;2022-12-07T08:27:45;97842.91;;;21.53
63009;BMP280;49099;28.428;-16.488;2022-12-07T08:30:13;97861.63;;;21.53
63009;BMP280;49099;28.428;-16.488;2022-12-07T08:32:41;97893.91;;;21.55
63009;BMP280;49099;28.428;-16.488;2022-12-07T08:35:08;97892.41;;;21.54
63009;BMP280;49099;28.428;-16.488;2022-12-07T08:37:36;97887.38;;;21.51
63009;BMP280;49099;28.428;-16.488;2022-12-07T08:40:05;97890.28;;;21.53
63009;BMP280;49099;28.428;-16.488;2022-12-07T08:42:33;97884.41;;;21.54
63009;BMP280;49099;28.428;-16.488;2022-12-07T08:45:07;97886.84;;;21.58
63009;BMP280;49099;28.428;-16.488;2022-12-07T08:47:37;97884.88;;;21.58
63009;BMP280;49099;28.428;-16.488;2022-12-07T08:50:07;97876.63;;;21.56
63009;BMP280;49099;28.428;-16.488;2022-12-07T08:52:35;97872.75;;;21.57
63009;BMP280;49099;28.428;-16.488;2022-12-07T08:55:04;97855.47;;;21.58
63009;BMP280;49099;28.428;-16.488;2022-12-07T08:57:33;97854.47;;;21.61
63009;BMP280;49099;28.428;-16.488;2022-12-07T09:00:01;97854.94;;;21.65
63009;BMP280;49099;28.428;-16.488;2022-12-07T09:02:31;97855.41;;;21.69
63009;BMP280;49099;28.428;-16.488;2022-12-07T09:04:58;97855.31;;;21.75
63009;BMP280;49099;28.428;-16.488;2022-12-07T09:07:26;97856.28;;;21.77
63009;BMP280;49099;28.428;-16.488;2022-12-07T09:09:53;97859.16;;;21.79
63009;BMP280;49099;28.428;-16.488;2022-12-07T09:12:20;97857.72;;;21.78
63009;BMP280;49099;28.428;-16.488;2022-12-07T09:14:47;97853.34;;;21.81
63009;BMP280;49099;28.428;-16.488;2022-12-07T09:17:14;97867.66;;;21.83
63009;BMP280;49099;28.428;-16.488;2022-12-07T09:19:41;97875.38;;;21.87
63009;BMP280;49099;28.428;-16.488;2022-12-07T09:22:09;97874.38;;;21.90
63009;BMP280;49099;28.428;-16.488;2022-12-07T09:24:36;97873.63;;;21.89
63009;BMP280;49099;28.428;-16.488;2022-12-07T09:27:03;97874.88;;;21.88
63009;BMP280;49099;28.428;-16.488;2022-12-07T09:29:30;97873.19;;;21.85
63009;BMP280;49099;28.428;-16.488;2022-12-07T09:31:57;97882.88;;;21.88
63009;BMP280;49099;28.428;-16.488;2022-12-07T09:34:25;97899.66;;;21.89
63009;BMP280;49099;28.428;-16.488;2022-12-07T09:36:53;97903.50;;;21.93
63009;BMP280;49099;28.428;-16.488;2022-12-07T09:39:20;97914.41;;;21.95
63009;BMP280;49099;28.428;-16.488;2022-12-07T09:41:48;97922.66;;;21.97
63009;BMP280;49099;28.428;-16.488;2022-12-07T09:44:22;97926.59;;;21.96
63009;BMP280;49099;28.428;-16.488;2022-12-07T09:46:50;97936.53;;;21.96
63009;BMP280;49099;28.428;-16.488;2022-12-07T09:49:21;97928.53;;;21.96
63009;BMP280;49099;28.428;-16.488;2022-12-07T09:52:20;97934.06;;;21.98
63009;BMP280;49099;28.428;-16.488;2022-12-07T09:54:52;97944.03;;;21.97
63009;BMP280;49099;28.428;-16.488;2022-12-07T09:57:30;97942.63;;;21.96
63009;BMP280;49099;28.428;-16.488;2022-12-07T10:00:02;97947.28;;;21.90
63009;BMP280;49099;28.428;-16.488;2022-12-07T10:02:37;97933.44;;;21.86
63009;BMP280;49099;28.428;-16.488;2022-12-07T10:05:21;97956.81;;;21.86
63009;BMP280;49099;28.428;-16.488;2022-12-07T10:07:50;97957.03;;;21.88
63009;BMP280;49099;28.428;-16.488;2022-12-07T10:10:23;97960.44;;;21.88
63009;BMP280;49099;28.428;-16.488;2022-12-07T10:12:55;97980.88;;;21.86
63009;BMP280;49099;28.428;-16.488;2022-12-07T10:15:23;97983.31;;;21.84
63009;BMP280;49099;28.428;-16.488;2022-12-07T10:17:51;97975.06;;;21.82
63009;BMP280;49099;28.428;-16.488;2022-12-07T10:20:26;97983.59;;;21.80
63009;BMP280;49099;28.428;-16.488;2022-12-07T10:23:05;97976.06;;;21.79
63009;BMP280;49099;28.428;-16.488;2022-12-07T10:25:34;97990.34;;;21.81
63009;BMP280;49099;28.428;-16.488;2022-12-07T10:31:00;98015.88;;;21.82
63009;BMP280;49099;28.428;-16.488;2022-12-07T10:33:37;98018.56;;;21.82
63009;BMP280;49099;28.428;-16.488;2022-12-07T10:36:23;98018.56;;;21.82
63009;BMP280;49099;28.428;-16.488;2022-12-07T10:38:53;98024.63;;;21.83
63009;BMP280;49099;28.428;-16.488;2022-12-07T10:41:25;98049.16;;;21.81
63009;BMP280;49099;28.428;-16.488;2022-12-07T10:43:54;98056.75;;;21.77
63009;BMP280;49099;28.428;-16.488;2022-12-07T10:46:36;98052.16;;;21.72
63009;BMP280;49099;28.428;-16.488;2022-12-07T10:55:11;98083.09;;;21.62
63009;BMP280;49099;28.428;-16.488;2022-12-07T11:00:13;98088.50;;;21.51
63009;BMP280;49099;28.428;-16.488;2022-12-07T11:05:43;98029.50;;;21.44
63009;BMP280;49099;28.428;-16.488;2022-12-07T11:16:52;97834.84;;;21.29
63009;BMP280;49099;28.428;-16.488;2022-12-07T11:25:14;97795.59;;;21.48
63009;BMP280;49099;28.428;-16.488;2022-12-07T11:27:52;97840.44;;;21.55
63009;BMP280;49099;28.428;-16.488;2022-12-07T11:30:34;97847.34;;;21.45
63009;BMP280;49099;28.428;-16.488;2022-12-07T11:35:45;97867.72;;;21.48
63009;BMP280;49099;28.428;-16.488;2022-12-07T11:38:24;97900.22;;;21.52
63009;BMP280;49099;28.428;-16.488;2022-12-07T11:41:00;97901.41;;;21.57
63009;BMP280;49099;28.428;-16.488;2022-12-07T11:46:54;97942.97;;;21.52
63009;BMP280;49099;28.428;-16.488;2022-12-07T11:52:35;97953.22;;;21.43
63009;BMP280;49099;28.428;-16.488;2022-12-07T11:55:21;97897.66;;;21.41
63009;BMP280;49099;28.428;-16.488;2022-12-07T11:57:54;97851.69;;;21.48
63009;BMP280;49099;28.428;-16.488;2022-12-07T12:00:24;97871.44;;;21.69
63009;BMP280;49099;28.428;-16.488;2022-12-07T12:03:10;97881.47;;;21.82
63009;BMP280;49099;28.428;-16.488;2022-12-07T12:05:39;97865.41;;;21.87
63009;BMP280;49099;28.428;-16.488;2022-12-07T12:08:19;97873.53;;;22.00
63009;BMP280;49099;28.428;-16.488;2022-12-07T12:13:54;97892.59;;;21.91
63009;BMP280;49099;28.428;-16.488;2022-12-07T12:17:11;97898.59;;;21.73
63009;BMP280;49099;28.428;-16.488;2022-12-07T12:22:47;97892.66;;;21.56
63009;BMP280;49099;28.428;-16.488;2022-12-07T12:25:29;97895.56;;;21.58
63009;BMP280;49099;28.428;-16.488;2022-12-07T12:28:01;97878.75;;;21.63
63009;BMP280;49099;28.428;-16.488;2022-12-07T12:30:39;97882.13;;;21.69
63009;BMP280;49099;28.428;-16.488;2022-12-07T12:33:30;97903.72;;;21.71
63009;BMP280;49099;28.428;-16.488;2022-12-07T12:46:48;97869.22;;;21.68
63009;BMP280;49099;28.428;-16.488;2022-12-07T12:51:47;97857.50;;;21.76
63009;BMP280;49099;28.428;-16.488;2022-12-07T12:57:09;97827.53;;;21.83
63009;BMP280;49099;28.428;-16.488;2022-12-07T12:59:57;97807.03;;;21.91
63009;BMP280;49099;28.428;-16.488;2022-12-07T13:02:35;97809.38;;;22.00
63009;BMP280;49099;28.428;-16.488;2022-12-07T13:15:47;97808.25;;;21.66
63009;BMP280;49099;28.428;-16.488;2022-12-07T13:21:00;97824.75;;;21.70
63009;BMP280;49099;28.428;-16.488;2022-12-07T13:29:16;97846.91;;;21.41
63009;BMP280;49099;28.428;-16.488;2022-12-07T13:31:55;97854.22;;;21.35
63009;BMP280;49099;28.428;-16.488;2022-12-07T13:34:35;97862.00;;;21.33
63009;BMP280;49099;28.428;-16.488;2022-12-07T13:37:27;97825.84;;;21.32
63009;BMP280;49099;28.428;-16.488;2022-12-07T13:40:18;97810.22;;;21.42
63009;BMP280;49099;28.428;-16.488;2022-12-07T13:42:46;97767.63;;;21.49
63009;BMP280;49099;28.428;-16.488;2022-12-07T13:45:28;97731.56;;;21.61
63009;BMP280;49099;28.428;-16.488;2022-12-07T13:48:21;97715.84;;;21.76
63009;BMP280;49099;28.428;-16.488;2022-12-07T13:50:56;97713.53;;;21.86
63009;BMP280;49099;28.428;-16.488;2022-12-07T13:53:24;97717.50;;;21.98
63009;BMP280;49099;28.428;-16.488;2022-12-07T13:55:52;97710.19;;;21.98
63009;BMP280;49099;28.428;-16.488;2022-12-07T13:58:21;97719.59;;;21.86
63009;BMP280;49099;28.428;-16.488;2022-12-07T14:00:49;97728.91;;;21.98
63009;BMP280;49099;28.428;-16.488;2022-12-07T14:05:44;97746.97;;;22.29
63009;BMP280;49099;28.428;-16.488;2022-12-07T14:16:33;97758.22;;;22.91
63009;BMP280;49099;28.428;-16.488;2022-12-07T14:19:38;97750.06;;;22.97
63009;BMP280;49099;28.428;-16.488;2022-12-07T14:22:17;97763.91;;;23.14
63009;BMP280;49099;28.428;-16.488;2022-12-07T14:24:45;97735.97;;;23.09
63009;BMP280;49099;28.428;-16.488;2022-12-07T14:27:23;97741.53;;;23.24
63009;BMP280;49099;28.428;-16.488;2022-12-07T14:29:57;97713.84;;;23.35
63009;BMP280;49099;28.428;-16.488;2022-12-07T14:32:27;97702.91;;;23.46
63009;BMP280;49099;28.428;-16.488;2022-12-07T14:37:35;97686.97;;;23.74
63009;BMP280;49099;28.428;-16.488;2022-12-07T14:40:02;97688.06;;;23.91
63009;BMP280;49099;28.428;-16.488;2022-12-07T14:42:30;97685.03;;;24.08
63009;BMP280;49099;28.428;-16.488;2022-12-07T14:44:58;97704.78;;;24.18
63009;BMP280;49099;28.428;-16.488;2022-12-07T14:47:26;97697.56;;;24.13
63009;BMP280;49099;28.428;-16.488;2022-12-07T14:50:17;97694.69;;;24.11
63009;BMP280;49099;28.428;-16.488;2022-12-07T14:52:48;97685.41;;;24.12
63009;BMP280;49099;28.428;-16.488;2022-12-07T14:55:36;97681.78;;;24.09
63009;BMP280;49099;28.428;-16.488;2022-12-07T14:58:03;97661.25;;;23.91
63009;BMP280;49099;28.428;-16.488;2022-12-07T15:00:30;97663.88;;;23.71
63009;BMP280;49099;28.428;-16.488;2022-12-07T15:02:57;97676.91;;;23.54
63009;BMP280;49099;28.428;-16.488;2022-12-07T15:05:25;97698.56;;;23.43
63009;BMP280;49099;28.428;-16.488;2022-12-07T15:07:52;97707.44;;;23.38
63009;BMP280;49099;28.428;-16.488;2022-12-07T15:10:24;97694.25;;;23.40
63009;BMP280;49099;28.428;-16.488;2022-12-07T15:13:00;97692.81;;;23.39
63009;BMP280;49099;28.428;-16.488;2022-12-07T15:15:48;97685.16;;;23.43
63009;BMP280;49099;28.428;-16.488;2022-12-07T15:18:16;97682.59;;;23.50
63009;BMP280;49099;28.428;-16.488;2022-12-07T15:20:44;97678.56;;;23.57
63009;BMP280;49099;28.428;-16.488;2022-12-07T15:23:11;97679.41;;;23.52
63009;BMP280;49099;28.428;-16.488;2022-12-07T15:25:46;97706.81;;;23.45
63009;BMP280;49099;28.428;-16.488;2022-12-07T15:28:14;97669.00;;;23.48
63009;BMP280;49099;28.428;-16.488;2022-12-07T15:30:42;97622.25;;;23.57
63009;BMP280;49099;28.428;-16.488;2022-12-07T15:33:11;97618.34;;;23.58
63009;BMP280;49099;28.428;-16.488;2022-12-07T15:35:40;97639.78;;;23.58
63009;BMP280;49099;28.428;-16.488;2022-12-07T15:38:07;97668.97;;;23.61
63009;BMP280;49099;28.428;-16.488;2022-12-07T15:40:35;97673.81;;;23.63
63009;BMP280;49099;28.428;-16.488;2022-12-07T15:43:02;97694.72;;;23.64
63009;BMP280;49099;28.428;-16.488;2022-12-07T15:45:30;97694.22;;;23.66
63009;BMP280;49099;28.428;-16.488;2022-12-07T15:47:58;97693.88;;;23.69
63009;BMP280;49099;28.428;-16.488;2022-12-07T15:50:45;97691.00;;;23.67
63009;BMP280;49099;28.428;-16.488;2022-12-07T15:53:12;97697.09;;;23.68
63009;BMP280;49099;28.428;-16.488;2022-12-07T15:55:39;97686.38;;;23.68
63009;BMP280;49099;28.428;-16.488;2022-12-07T15:58:07;97683.16;;;23.69
63009;BMP280;49099;28.428;-16.488;2022-12-07T16:00:34;97664.19;;;23.67
63009;BMP280;49099;28.428;-16.488;2022-12-07T16:03:01;97661.31;;;23.65
63009;BMP280;49099;28.428;-16.488;2022-12-07T16:05:28;97663.81;;;23.63
63009;BMP280;49099;28.428;-16.488;2022-12-07T16:07:55;97668.97;;;23.61
63009;BMP280;49099;28.428;-16.488;2022-12-07T16:10:22;97663.81;;;23.63
63009;BMP280;49099;28.428;-16.488;2022-12-07T16:12:49;97661.66;;;23.62
63009;BMP280;49099;28.428;-16.488;2022-12-07T16:15:17;97665.94;;;23.65